sensor_id;sensor_type;location;lat;lon;timestamp;temperature;humidity
6174;DHT22;3120;48.796;9.796;2024-03-08T00:00:14;1.70;99.90
6174;DHT22;3120;48.796;9.796;2024-03-08T00:02:41;1.70;99.90
6174;DHT22;3120;48.796;9.796;2024-03-08T00:05:08;1.70;99.90
6174;DHT22;3120;48.796;9.796;2024-03-08T00:07:40;1.60;99.90
6174;DHT22;3120;48.796;9.796;2024-03-08T00:10:07;1.60;99.90
6174;DHT22;3120;48.796;9.796;2024-03-08T00:12:37;1.60;99.90
6174;DHT22;3120;48.796;9.796;2024-03-08T00:15:02;1.50;99.90
6174;DHT22;3120;48.796;9.796;2024-03-08T00:17:28;1.50;99.90
6174;DHT22;3120;48.796;9.796;2024-03-08T00:19:54;1.50;99.90
6174;DHT22;3120;48.796;9.796;2024-03-08T00:22:19;1.40;99.90
6174;DHT22;3120;48.796;9.796;2024-03-08T00:24:45;1.40;99.90
6174;DHT22;3120;48.796;9.796;2024-03-08T00:27:11;1.40;99.90
6174;DHT22;3120;48.796;9.796;2024-03-08T00:29:37;1.40;99.90
6174;DHT22;3120;48.796;9.796;2024-03-08T00:32:04;1.50;99.90
6174;DHT22;3120;48.796;9.796;2024-03-08T00:34:29;1.50;99.90
6174;DHT22;3120;48.796;9.796;2024-03-08T00:36:55;1.50;99.90
6174;DHT22;3120;48.796;9.796;2024-03-08T00:39:21;1.40;99.90
6174;DHT22;3120;48.796;9.796;2024-03-08T00:41:47;1.40;99.90
6174;DHT22;3120;48.796;9.796;2024-03-08T00:44:13;1.40;99.90
6174;DHT22;3120;48.796;9.796;2024-03-08T00:46:38;1.40;99.90
6174;DHT22;3120;48.796;9.796;2024-03-08T00:49:04;1.40;99.90
6174;DHT22;3120;48.796;9.796;2024-03-08T00:51:29;1.40;99.90
6174;DHT22;3120;48.796;9.796;2024-03-08T00:53:55;1.40;99.90
6174;DHT22;3120;48.796;9.796;2024-03-08T00:56:20;1.40;99.90
6174;DHT22;3120;48.796;9.796;2024-03-08T00:58:46;1.40;99.90
6174;DHT22;3120;48.796;9.796;2024-03-08T01:01:13;1.40;99.90
6174;DHT22;3120;48.796;9.796;2024-03-08T01:03:43;1.40;99.90
6174;DHT22;3120;48.796;9.796;2024-03-08T01:06:08;1.40;99.90
6174;DHT22;3120;48.796;9.796;2024-03-08T01:08:34;1.50;99.90
6174;DHT22;3120;48.796;9.796;2024-03-08T01:10:59;1.50;99.90
6174;DHT22;3120;48.796;9.796;2024-03-08T01:13:25;1.50;99.90
6174;DHT22;3120;48.796;9.796;2024-03-08T01:15:51;1.50;99.90
6174;DHT22;3120;48.796;9.796;2024-03-08T01:18:17;1.60;99.90
6174;DHT22;3120;48.796;9.796;2024-03-08T01:20:42;1.70;99.90
6174;DHT22;3120;48.796;9.796;2024-03-08T01:23:08;1.70;99.90
6174;DHT22;3120;48.796;9.796;2024-03-08T01:25:34;1.70;99.90
6174;DHT22;3120;48.796;9.796;2024-03-08T01:27:59;1.80;99.90
6174;DHT22;3120;48.796;9.796;2024-03-08T01:30:25;1.80;99.90
6174;DHT22;3120;48.796;9.796;2024-03-08T01:32:50;1.80;99.90
6174;DHT22;3120;48.796;9.796;2024-03-08T01:35:16;1.70;99.90
6174;DHT22;3120;48.796;9.796;2024-03-08T01:37:42;1.70;99.90
6174;DHT22;3120;48.796;9.796;2024-03-08T01:40:07;1.70;99.90
6174;DHT22;3120;48.796;9.796;2024-03-08T01:42:34;1.70;99.90
6174;DHT22;3120;48.796;9.796;2024-03-08T01:45:06;1.70;99.90
6174;DHT22;3120;48.796;9.796;2024-03-08T01:47:32;1.60;99.90
6174;DHT22;3120;48.796;9.796;2024-03-08T01:49:59;1.60;99.90
6174;DHT22;3120;48.796;9.796;2024-03-08T01:52:27;1.50;99.90
6174;DHT22;3120;48.796;9.796;2024-03-08T01:54:54;1.50;99.90
6174;DHT22;3120;48.796;9.796;2024-03-08T01:57:20;1.40;99.90
6174;DHT22;3120;48.796;9.796;2024-03-08T01:59:46;1.40;99.90
6174;DHT22;3120;48.796;9.796;2024-03-08T02:02:15;1.40;99.90
6174;DHT22;3120;48.796;9.796;2024-03-08T02:04:43;1.40;99.90
6174;DHT22;3120;48.796;9.796;2024-03-08T02:07:09;1.40;99.90
6174;DHT22;3120;48.796;9.796;2024-03-08T02:09:35;1.40;99.90
6174;DHT22;3120;48.796;9.796;2024-03-08T02:12:00;1.50;99.90
6174;DHT22;3120;48.796;9.796;2024-03-08T02:14:26;1.50;99.90
6174;DHT22;3120;48.796;9.796;2024-03-08T02:16:51;1.50;99.90
6174;DHT22;3120;48.796;9.796;2024-03-08T02:19:17;1.40;99.90
6174;DHT22;3120;48.796;9.796;2024-03-08T02:21:43;1.40;99.90
6174;DHT22;3120;48.796;9.796;2024-03-08T02:24:09;1.40;99.90
6174;DHT22;3120;48.796;9.796;2024-03-08T02:26:35;1.30;99.90
6174;DHT22;3120;48.796;9.796;2024-03-08T02:29:01;1.30;99.90
6174;DHT22;3120;48.796;9.796;2024-03-08T02:31:27;1.30;99.90
6174;DHT22;3120;48.796;9.796;2024-03-08T02:33:52;1.30;99.90
6174;DHT22;3120;48.796;9.796;2024-03-08T02:36:18;1.40;99.90
6174;DHT22;3120;48.796;9.796;2024-03-08T02:38:43;1.50;99.90
6174;DHT22;3120;48.796;9.796;2024-03-08T02:41:09;1.60;99.90
6174;DHT22;3120;48.796;9.796;2024-03-08T02:43:35;1.60;99.90
6174;DHT22;3120;48.796;9.796;2024-03-08T02:46:01;1.50;99.90
6174;DHT22;3120;48.796;9.796;2024-03-08T02:48:26;1.40;99.90
6174;DHT22;3120;48.796;9.796;2024-03-08T02:50:52;1.50;99.90
6174;DHT22;3120;48.796;9.796;2024-03-08T02:53:17;1.50;99.90
6174;DHT22;3120;48.796;9.796;2024-03-08T02:55:44;1.60;99.90
6174;DHT22;3120;48.796;9.796;2024-03-08T02:58:10;1.60;99.90
6174;DHT22;3120;48.796;9.796;2024-03-08T03:00:36;1.70;99.90
6174;DHT22;3120;48.796;9.796;2024-03-08T03:03:02;1.70;99.90
6174;DHT22;3120;48.796;9.796;2024-03-08T03:05:28;1.80;99.90
6174;DHT22;3120;48.796;9.796;2024-03-08T03:07:55;1.80;99.90
6174;DHT22;3120;48.796;9.796;2024-03-08T03:10:21;1.90;99.90
6174;DHT22;3120;48.796;9.796;2024-03-08T03:12:47;1.90;99.90
6174;DHT22;3120;48.796;9.796;2024-03-08T03:15:14;1.90;99.90
6174;DHT22;3120;48.796;9.796;2024-03-08T03:17:40;1.90;99.90
6174;DHT22;3120;48.796;9.796;2024-03-08T03:20:09;2.00;99.90
6174;DHT22;3120;48.796;9.796;2024-03-08T03:22:36;2.00;99.90
6174;DHT22;3120;48.796;9.796;2024-03-08T03:25:03;2.00;99.90
6174;DHT22;3120;48.796;9.796;2024-03-08T03:27:32;2.00;99.90
6174;DHT22;3120;48.796;9.796;2024-03-08T03:29:58;2.00;99.90
6174;DHT22;3120;48.796;9.796;2024-03-08T03:32:23;2.00;99.90
6174;DHT22;3120;48.796;9.796;2024-03-08T03:34:49;2.10;99.90
6174;DHT22;3120;48.796;9.796;2024-03-08T03:37:21;2.10;99.90
6174;DHT22;3120;48.796;9.796;2024-03-08T03:39:47;2.10;99.90
6174;DHT22;3120;48.796;9.796;2024-03-08T03:42:18;2.00;99.90
6174;DHT22;3120;48.796;9.796;2024-03-08T03:44:45;1.90;99.90
6174;DHT22;3120;48.796;9.796;2024-03-08T03:47:11;2.00;99.90
6174;DHT22;3120;48.796;9.796;2024-03-08T03:49:37;2.00;99.90
6174;DHT22;3120;48.796;9.796;2024-03-08T03:52:02;2.00;99.90
6174;DHT22;3120;48.796;9.796;2024-03-08T03:54:30;2.00;99.90
6174;DHT22;3120;48.796;9.796;2024-03-08T03:56:56;2.10;99.90
6174;DHT22;3120;48.796;9.796;2024-03-08T03:59:21;2.10;99.90
6174;DHT22;3120;48.796;9.796;2024-03-08T04:01:47;2.10;99.90
6174;DHT22;3120;48.796;9.796;2024-03-08T04:04:13;2.10;99.90
6174;DHT22;3120;48.796;9.796;2024-03-08T04:06:38;2.10;99.90
6174;DHT22;3120;48.796;9.796;2024-03-08T04:09:04;2.00;99.90
6174;DHT22;3120;48.796;9.796;2024-03-08T04:11:30;2.00;99.90
6174;DHT22;3120;48.796;9.796;2024-03-08T04:13:56;2.00;99.90
6174;DHT22;3120;48.796;9.796;2024-03-08T04:16:21;2.00;99.90
6174;DHT22;3120;48.796;9.796;2024-03-08T04:18:47;2.00;99.90
6174;DHT22;3120;48.796;9.796;2024-03-08T04:21:13;2.00;99.90
6174;DHT22;3120;48.796;9.796;2024-03-08T04:23:38;1.90;99.90
6174;DHT22;3120;48.796;9.796;2024-03-08T04:26:05;1.90;99.90
6174;DHT22;3120;48.796;9.796;2024-03-08T04:28:32;1.90;99.90
6174;DHT22;3120;48.796;9.796;2024-03-08T04:30:58;1.90;99.90
6174;DHT22;3120;48.796;9.796;2024-03-08T04:33:26;1.90;99.90
6174;DHT22;3120;48.796;9.796;2024-03-08T04:35:51;1.80;99.90
6174;DHT22;3120;48.796;9.796;2024-03-08T04:38:17;1.80;99.90
6174;DHT22;3120;48.796;9.796;2024-03-08T04:40:43;1.80;99.90
6174;DHT22;3120;48.796;9.796;2024-03-08T04:43:09;1.80;99.90
6174;DHT22;3120;48.796;9.796;2024-03-08T04:45:36;1.80;99.90
6174;DHT22;3120;48.796;9.796;2024-03-08T04:48:02;1.80;99.90
6174;DHT22;3120;48.796;9.796;2024-03-08T04:50:27;1.80;99.90
6174;DHT22;3120;48.796;9.796;2024-03-08T04:52:56;1.80;99.90
6174;DHT22;3120;48.796;9.796;2024-03-08T04:55:21;1.80;99.90
6174;DHT22;3120;48.796;9.796;2024-03-08T04:57:49;1.90;99.90
6174;DHT22;3120;48.796;9.796;2024-03-08T05:00:15;1.80;99.90
6174;DHT22;3120;48.796;9.796;2024-03-08T05:02:41;1.90;99.90
6174;DHT22;3120;48.796;9.796;2024-03-08T05:05:09;1.90;99.90
6174;DHT22;3120;48.796;9.796;2024-03-08T05:07:38;1.90;99.90
6174;DHT22;3120;48.796;9.796;2024-03-08T05:10:05;2.00;99.90
6174;DHT22;3120;48.796;9.796;2024-03-08T05:12:32;2.00;99.90
6174;DHT22;3120;48.796;9.796;2024-03-08T05:14:58;1.90;99.90
6174;DHT22;3120;48.796;9.796;2024-03-08T05:17:24;2.00;99.90
6174;DHT22;3120;48.796;9.796;2024-03-08T05:19:49;1.90;99.90
6174;DHT22;3120;48.796;9.796;2024-03-08T05:22:15;1.90;99.90
6174;DHT22;3120;48.796;9.796;2024-03-08T05:24:41;1.90;99.90
6174;DHT22;3120;48.796;9.796;2024-03-08T05:27:06;1.90;99.90
6174;DHT22;3120;48.796;9.796;2024-03-08T05:29:32;1.80;99.90
6174;DHT22;3120;48.796;9.796;2024-03-08T05:31:58;1.90;99.90
6174;DHT22;3120;48.796;9.796;2024-03-08T05:34:24;1.80;99.90
6174;DHT22;3120;48.796;9.796;2024-03-08T05:36:51;1.80;99.90
6174;DHT22;3120;48.796;9.796;2024-03-08T05:39:18;1.80;99.90
6174;DHT22;3120;48.796;9.796;2024-03-08T05:41:44;1.80;99.90
6174;DHT22;3120;48.796;9.796;2024-03-08T05:44:11;1.70;99.90
6174;DHT22;3120;48.796;9.796;2024-03-08T05:46:37;1.80;99.90
6174;DHT22;3120;48.796;9.796;2024-03-08T05:49:03;1.80;99.90
6174;DHT22;3120;48.796;9.796;2024-03-08T05:51:31;1.90;99.90
6174;DHT22;3120;48.796;9.796;2024-03-08T05:53:57;2.00;99.90
6174;DHT22;3120;48.796;9.796;2024-03-08T05:56:25;2.00;99.90
6174;DHT22;3120;48.796;9.796;2024-03-08T05:58:50;1.90;99.90
6174;DHT22;3120;48.796;9.796;2024-03-08T06:01:16;1.90;99.90
6174;DHT22;3120;48.796;9.796;2024-03-08T06:03:41;1.90;99.90
6174;DHT22;3120;48.796;9.796;2024-03-08T06:06:14;1.90;99.90
6174;DHT22;3120;48.796;9.796;2024-03-08T06:08:40;1.90;99.90
6174;DHT22;3120;48.796;9.796;2024-03-08T06:11:08;1.90;99.90
6174;DHT22;3120;48.796;9.796;2024-03-08T06:13:34;1.90;99.90
6174;DHT22;3120;48.796;9.796;2024-03-08T06:16:03;2.00;99.90
6174;DHT22;3120;48.796;9.796;2024-03-08T06:18:30;2.00;99.90
6174;DHT22;3120;48.796;9.796;2024-03-08T06:20:56;2.10;99.90
6174;DHT22;3120;48.796;9.796;2024-03-08T06:23:22;2.10;99.90
6174;DHT22;3120;48.796;9.796;2024-03-08T06:25:48;2.20;99.90
6174;DHT22;3120;48.796;9.796;2024-03-08T06:28:13;2.30;99.90
6174;DHT22;3120;48.796;9.796;2024-03-08T06:30:40;2.30;99.90
6174;DHT22;3120;48.796;9.796;2024-03-08T06:33:05;2.40;99.90
6174;DHT22;3120;48.796;9.796;2024-03-08T06:35:32;2.50;99.90
6174;DHT22;3120;48.796;9.796;2024-03-08T06:37:58;2.50;99.90
6174;DHT22;3120;48.796;9.796;2024-03-08T06:40:24;2.50;99.90
6174;DHT22;3120;48.796;9.796;2024-03-08T06:42:49;2.50;99.90
6174;DHT22;3120;48.796;9.796;2024-03-08T06:45:17;2.60;99.90
6174;DHT22;3120;48.796;9.796;2024-03-08T06:47:46;2.60;99.90
6174;DHT22;3120;48.796;9.796;2024-03-08T06:50:12;2.60;99.90
6174;DHT22;3120;48.796;9.796;2024-03-08T06:52:38;2.80;99.90
6174;DHT22;3120;48.796;9.796;2024-03-08T06:55:04;2.80;99.90
6174;DHT22;3120;48.796;9.796;2024-03-08T06:57:31;2.90;99.90
6174;DHT22;3120;48.796;9.796;2024-03-08T06:59:56;3.00;99.90
6174;DHT22;3120;48.796;9.796;2024-03-08T07:02:25;3.00;99.90
6174;DHT22;3120;48.796;9.796;2024-03-08T07:04:51;3.00;99.90
6174;DHT22;3120;48.796;9.796;2024-03-08T07:07:18;3.00;99.90
6174;DHT22;3120;48.796;9.796;2024-03-08T07:09:46;3.00;99.90
6174;DHT22;3120;48.796;9.796;2024-03-08T07:12:11;3.10;99.90
6174;DHT22;3120;48.796;9.796;2024-03-08T07:14:38;3.10;99.90
6174;DHT22;3120;48.796;9.796;2024-03-08T07:17:07;3.20;99.90
6174;DHT22;3120;48.796;9.796;2024-03-08T07:19:36;3.20;99.90
6174;DHT22;3120;48.796;9.796;2024-03-08T07:22:04;3.30;99.90
6174;DHT22;3120;48.796;9.796;2024-03-08T07:24:30;3.30;99.90
6174;DHT22;3120;48.796;9.796;2024-03-08T07:27:14;3.30;99.90
6174;DHT22;3120;48.796;9.796;2024-03-08T07:29:39;3.40;99.90
6174;DHT22;3120;48.796;9.796;2024-03-08T07:32:05;3.40;99.90
6174;DHT22;3120;48.796;9.796;2024-03-08T07:34:51;3.40;99.90
6174;DHT22;3120;48.796;9.796;2024-03-08T07:37:17;3.40;99.90
6174;DHT22;3120;48.796;9.796;2024-03-08T07:39:44;3.50;99.90
6174;DHT22;3120;48.796;9.796;2024-03-08T07:42:10;3.50;99.90
6174;DHT22;3120;48.796;9.796;2024-03-08T07:44:37;3.60;99.90
6174;DHT22;3120;48.796;9.796;2024-03-08T07:47:04;3.60;99.90
6174;DHT22;3120;48.796;9.796;2024-03-08T07:49:30;3.60;99.90
6174;DHT22;3120;48.796;9.796;2024-03-08T07:51:56;3.60;99.90
6174;DHT22;3120;48.796;9.796;2024-03-08T07:54:22;3.70;99.90
6174;DHT22;3120;48.796;9.796;2024-03-08T07:56:47;3.70;99.90
6174;DHT22;3120;48.796;9.796;2024-03-08T07:59:13;3.80;99.90
6174;DHT22;3120;48.796;9.796;2024-03-08T08:01:38;3.70;99.90
6174;DHT22;3120;48.796;9.796;2024-03-08T08:04:04;3.80;99.90
6174;DHT22;3120;48.796;9.796;2024-03-08T08:06:30;4.00;99.90
6174;DHT22;3120;48.796;9.796;2024-03-08T08:08:59;4.10;99.90
6174;DHT22;3120;48.796;9.796;2024-03-08T08:11:27;4.10;99.90
6174;DHT22;3120;48.796;9.796;2024-03-08T08:13:54;4.20;99.90
6174;DHT22;3120;48.796;9.796;2024-03-08T08:16:25;4.30;99.90
6174;DHT22;3120;48.796;9.796;2024-03-08T08:18:51;4.30;99.90
6174;DHT22;3120;48.796;9.796;2024-03-08T08:21:18;4.40;99.90
6174;DHT22;3120;48.796;9.796;2024-03-08T08:23:43;4.40;99.90
6174;DHT22;3120;48.796;9.796;2024-03-08T08:26:10;4.40;99.90
6174;DHT22;3120;48.796;9.796;2024-03-08T08:28:36;4.60;99.90
6174;DHT22;3120;48.796;9.796;2024-03-08T08:31:02;4.40;99.90
6174;DHT22;3120;48.796;9.796;2024-03-08T08:33:29;4.30;99.90
6174;DHT22;3120;48.796;9.796;2024-03-08T08:35:55;4.50;99.90
6174;DHT22;3120;48.796;9.796;2024-03-08T08:38:21;4.40;99.90
6174;DHT22;3120;48.796;9.796;2024-03-08T08:40:47;4.50;99.90
6174;DHT22;3120;48.796;9.796;2024-03-08T08:43:13;4.70;99.90
6174;DHT22;3120;48.796;9.796;2024-03-08T08:45:39;4.70;99.90
6174;DHT22;3120;48.796;9.796;2024-03-08T08:48:05;4.60;99.90
6174;DHT22;3120;48.796;9.796;2024-03-08T08:50:31;4.50;99.90
6174;DHT22;3120;48.796;9.796;2024-03-08T08:52:57;4.60;99.90
6174;DHT22;3120;48.796;9.796;2024-03-08T08:55:23;4.70;99.90
6174;DHT22;3120;48.796;9.796;2024-03-08T08:57:52;4.70;99.90
6174;DHT22;3120;48.796;9.796;2024-03-08T09:00:21;4.80;99.90
6174;DHT22;3120;48.796;9.796;2024-03-08T09:02:52;5.00;99.90
6174;DHT22;3120;48.796;9.796;2024-03-08T09:05:20;5.20;99.90
6174;DHT22;3120;48.796;9.796;2024-03-08T09:07:46;5.20;99.90
6174;DHT22;3120;48.796;9.796;2024-03-08T09:10:12;5.20;99.90
6174;DHT22;3120;48.796;9.796;2024-03-08T09:12:40;5.30;99.90
6174;DHT22;3120;48.796;9.796;2024-03-08T09:15:06;5.50;99.90
6174;DHT22;3120;48.796;9.796;2024-03-08T09:17:34;5.40;99.90
6174;DHT22;3120;48.796;9.796;2024-03-08T09:19:59;5.10;99.90
6174;DHT22;3120;48.796;9.796;2024-03-08T09:22:25;5.20;99.90
6174;DHT22;3120;48.796;9.796;2024-03-08T09:24:50;5.40;99.90
6174;DHT22;3120;48.796;9.796;2024-03-08T09:27:16;5.50;99.90
6174;DHT22;3120;48.796;9.796;2024-03-08T09:29:43;5.70;99.90
6174;DHT22;3120;48.796;9.796;2024-03-08T09:32:10;5.80;99.90
6174;DHT22;3120;48.796;9.796;2024-03-08T09:34:37;6.10;99.90
6174;DHT22;3120;48.796;9.796;2024-03-08T09:37:03;6.00;99.90
6174;DHT22;3120;48.796;9.796;2024-03-08T09:39:29;6.10;99.90
6174;DHT22;3120;48.796;9.796;2024-03-08T09:41:55;6.10;99.90
6174;DHT22;3120;48.796;9.796;2024-03-08T09:44:20;6.30;99.90
6174;DHT22;3120;48.796;9.796;2024-03-08T09:46:46;6.10;99.90
6174;DHT22;3120;48.796;9.796;2024-03-08T09:49:48;6.10;99.90
6174;DHT22;3120;48.796;9.796;2024-03-08T09:52:15;6.50;99.90
6174;DHT22;3120;48.796;9.796;2024-03-08T09:54:40;7.40;99.90
6174;DHT22;3120;48.796;9.796;2024-03-08T09:57:09;7.30;99.90
6174;DHT22;3120;48.796;9.796;2024-03-08T09:59:35;7.30;99.90
6174;DHT22;3120;48.796;9.796;2024-03-08T10:02:01;7.70;99.90
6174;DHT22;3120;48.796;9.796;2024-03-08T10:04:28;7.30;99.90
6174;DHT22;3120;48.796;9.796;2024-03-08T10:06:58;6.80;99.90
6174;DHT22;3120;48.796;9.796;2024-03-08T10:09:25;6.70;99.90
6174;DHT22;3120;48.796;9.796;2024-03-08T10:11:59;7.00;99.90
6174;DHT22;3120;48.796;9.796;2024-03-08T10:14:25;7.10;99.90
6174;DHT22;3120;48.796;9.796;2024-03-08T10:16:52;6.80;99.90
6174;DHT22;3120;48.796;9.796;2024-03-08T10:19:17;6.90;99.90
6174;DHT22;3120;48.796;9.796;2024-03-08T10:21:52;6.90;99.90
6174;DHT22;3120;48.796;9.796;2024-03-08T10:24:19;7.00;99.90
6174;DHT22;3120;48.796;9.796;2024-03-08T10:26:44;7.40;99.90
6174;DHT22;3120;48.796;9.796;2024-03-08T10:29:10;7.50;99.90
6174;DHT22;3120;48.796;9.796;2024-03-08T10:31:43;7.40;99.90
6174;DHT22;3120;48.796;9.796;2024-03-08T10:34:09;7.20;99.90
6174;DHT22;3120;48.796;9.796;2024-03-08T10:36:36;7.80;99.90
6174;DHT22;3120;48.796;9.796;2024-03-08T10:39:03;9.40;99.90
6174;DHT22;3120;48.796;9.796;2024-03-08T10:41:33;9.50;99.90
6174;DHT22;3120;48.796;9.796;2024-03-08T10:44:19;9.00;99.90
6174;DHT22;3120;48.796;9.796;2024-03-08T10:47:22;8.50;99.90
6174;DHT22;3120;48.796;9.796;2024-03-08T10:50:11;8.70;99.90
6174;DHT22;3120;48.796;9.796;2024-03-08T10:52:42;8.80;99.90
6174;DHT22;3120;48.796;9.796;2024-03-08T10:55:10;10.00;99.90
6174;DHT22;3120;48.796;9.796;2024-03-08T10:57:38;10.10;99.90
6174;DHT22;3120;48.796;9.796;2024-03-08T11:00:06;11.10;99.90
6174;DHT22;3120;48.796;9.796;2024-03-08T11:02:35;11.80;99.90
6174;DHT22;3120;48.796;9.796;2024-03-08T11:05:03;11.80;99.50
6174;DHT22;3120;48.796;9.796;2024-03-08T11:07:33;11.80;99.00
6174;DHT22;3120;48.796;9.796;2024-03-08T11:10:02;11.90;97.50
6174;DHT22;3120;48.796;9.796;2024-03-08T11:12:38;11.60;96.80
6174;DHT22;3120;48.796;9.796;2024-03-08T11:15:11;11.40;97.00
6174;DHT22;3120;48.796;9.796;2024-03-08T11:20:10;12.20;94.70
6174;DHT22;3120;48.796;9.796;2024-03-08T11:22:41;11.60;96.00
6174;DHT22;3120;48.796;9.796;2024-03-08T11:25:34;11.90;95.50
6174;DHT22;3120;48.796;9.796;2024-03-08T11:28:14;12.40;94.30
6174;DHT22;3120;48.796;9.796;2024-03-08T11:30:44;11.90;94.70
6174;DHT22;3120;48.796;9.796;2024-03-08T11:33:14;12.40;93.20
6174;DHT22;3120;48.796;9.796;2024-03-08T11:35:41;12.60;92.80
6174;DHT22;3120;48.796;9.796;2024-03-08T11:38:08;13.00;91.70
6174;DHT22;3120;48.796;9.796;2024-03-08T11:40:35;12.80;90.90
6174;DHT22;3120;48.796;9.796;2024-03-08T11:43:01;13.20;89.40
6174;DHT22;3120;48.796;9.796;2024-03-08T11:45:34;13.50;89.40
6174;DHT22;3120;48.796;9.796;2024-03-08T11:48:04;13.20;87.60
6174;DHT22;3120;48.796;9.796;2024-03-08T11:50:30;14.10;86.30
6174;DHT22;3120;48.796;9.796;2024-03-08T11:53:03;14.50;83.80
6174;DHT22;3120;48.796;9.796;2024-03-08T11:55:33;15.40;80.40
6174;DHT22;3120;48.796;9.796;2024-03-08T11:58:04;15.10;79.00
6174;DHT22;3120;48.796;9.796;2024-03-08T12:00:31;15.40;76.60
6174;DHT22;3120;48.796;9.796;2024-03-08T12:03:07;14.70;77.60
6174;DHT22;3120;48.796;9.796;2024-03-08T12:05:35;14.10;80.40
6174;DHT22;3120;48.796;9.796;2024-03-08T12:08:04;14.30;79.90
6174;DHT22;3120;48.796;9.796;2024-03-08T12:10:38;14.20;77.50
6174;DHT22;3120;48.796;9.796;2024-03-08T12:13:04;13.40;81.40
6174;DHT22;3120;48.796;9.796;2024-03-08T12:15:31;13.70;81.00
6174;DHT22;3120;48.796;9.796;2024-03-08T12:17:59;13.90;79.20
6174;DHT22;3120;48.796;9.796;2024-03-08T12:20:27;13.90;80.00
6174;DHT22;3120;48.796;9.796;2024-03-08T12:22:55;14.50;76.80
6174;DHT22;3120;48.796;9.796;2024-03-08T12:25:33;14.20;78.00
6174;DHT22;3120;48.796;9.796;2024-03-08T12:28:09;15.40;75.70
6174;DHT22;3120;48.796;9.796;2024-03-08T12:30:51;15.60;73.80
6174;DHT22;3120;48.796;9.796;2024-03-08T12:33:21;15.20;75.80
6174;DHT22;3120;48.796;9.796;2024-03-08T12:35:54;15.40;74.60
6174;DHT22;3120;48.796;9.796;2024-03-08T12:38:23;15.20;73.80
6174;DHT22;3120;48.796;9.796;2024-03-08T12:40:55;16.00;71.60
6174;DHT22;3120;48.796;9.796;2024-03-08T12:43:22;16.00;70.50
6174;DHT22;3120;48.796;9.796;2024-03-08T12:45:47;15.70;70.70
6174;DHT22;3120;48.796;9.796;2024-03-08T12:48:13;16.20;69.50
6174;DHT22;3120;48.796;9.796;2024-03-08T12:50:41;16.10;67.60
6174;DHT22;3120;48.796;9.796;2024-03-08T12:53:08;15.40;70.40
6174;DHT22;3120;48.796;9.796;2024-03-08T12:55:34;16.10;69.00
6174;DHT22;3120;48.796;9.796;2024-03-08T12:58:00;16.20;68.60
6174;DHT22;3120;48.796;9.796;2024-03-08T13:00:26;15.70;70.10
6174;DHT22;3120;48.796;9.796;2024-03-08T13:02:53;15.90;68.60
6174;DHT22;3120;48.796;9.796;2024-03-08T13:05:19;16.40;67.70
6174;DHT22;3120;48.796;9.796;2024-03-08T13:07:45;16.90;66.20
6174;DHT22;3120;48.796;9.796;2024-03-08T13:10:15;16.90;64.80
6174;DHT22;3120;48.796;9.796;2024-03-08T13:12:44;16.60;65.20
6174;DHT22;3120;48.796;9.796;2024-03-08T13:15:10;16.50;65.20
6174;DHT22;3120;48.796;9.796;2024-03-08T13:17:48;17.10;62.70
6174;DHT22;3120;48.796;9.796;2024-03-08T13:20:14;16.50;64.90
6174;DHT22;3120;48.796;9.796;2024-03-08T13:22:44;16.40;64.50
6174;DHT22;3120;48.796;9.796;2024-03-08T13:25:10;16.50;64.70
6174;DHT22;3120;48.796;9.796;2024-03-08T13:27:41;16.90;62.70
6174;DHT22;3120;48.796;9.796;2024-03-08T13:30:11;16.40;64.00
6174;DHT22;3120;48.796;9.796;2024-03-08T13:32:44;15.70;64.30
6174;DHT22;3120;48.796;9.796;2024-03-08T13:35:13;15.60;65.30
6174;DHT22;3120;48.796;9.796;2024-03-08T13:37:42;16.00;65.40
6174;DHT22;3120;48.796;9.796;2024-03-08T13:40:09;16.80;62.00
6174;DHT22;3120;48.796;9.796;2024-03-08T13:42:40;16.10;63.90
6174;DHT22;3120;48.796;9.796;2024-03-08T13:45:08;15.90;64.70
6174;DHT22;3120;48.796;9.796;2024-03-08T13:47:38;16.40;62.20
6174;DHT22;3120;48.796;9.796;2024-03-08T13:50:05;16.20;62.60
6174;DHT22;3120;48.796;9.796;2024-03-08T13:52:33;16.80;63.00
6174;DHT22;3120;48.796;9.796;2024-03-08T13:55:00;17.30;60.10
6174;DHT22;3120;48.796;9.796;2024-03-08T13:57:26;17.30;59.60
6174;DHT22;3120;48.796;9.796;2024-03-08T13:59:52;17.20;60.40
6174;DHT22;3120;48.796;9.796;2024-03-08T14:02:18;17.20;60.60
6174;DHT22;3120;48.796;9.796;2024-03-08T14:04:44;17.70;59.70
6174;DHT22;3120;48.796;9.796;2024-03-08T14:07:09;18.00;59.10
6174;DHT22;3120;48.796;9.796;2024-03-08T14:09:37;18.10;58.90
6174;DHT22;3120;48.796;9.796;2024-03-08T14:12:08;18.40;57.70
6174;DHT22;3120;48.796;9.796;2024-03-08T14:14:34;18.40;56.60
6174;DHT22;3120;48.796;9.796;2024-03-08T14:17:03;17.40;58.00
6174;DHT22;3120;48.796;9.796;2024-03-08T14:19:29;17.50;58.10
6174;DHT22;3120;48.796;9.796;2024-03-08T14:21:59;17.20;58.90
6174;DHT22;3120;48.796;9.796;2024-03-08T14:24:25;16.80;59.50
6174;DHT22;3120;48.796;9.796;2024-03-08T14:26:51;17.40;58.20
6174;DHT22;3120;48.796;9.796;2024-03-08T14:29:17;17.50;57.50
6174;DHT22;3120;48.796;9.796;2024-03-08T14:31:44;17.50;57.40
6174;DHT22;3120;48.796;9.796;2024-03-08T14:34:10;16.90;59.00
6174;DHT22;3120;48.796;9.796;2024-03-08T14:36:36;17.00;59.50
6174;DHT22;3120;48.796;9.796;2024-03-08T14:39:02;17.20;58.70
6174;DHT22;3120;48.796;9.796;2024-03-08T14:41:27;16.90;59.90
6174;DHT22;3120;48.796;9.796;2024-03-08T14:43:53;18.00;57.10
6174;DHT22;3120;48.796;9.796;2024-03-08T14:46:19;17.80;57.50
6174;DHT22;3120;48.796;9.796;2024-03-08T14:48:49;17.20;58.00
6174;DHT22;3120;48.796;9.796;2024-03-08T14:51:20;17.20;58.60
6174;DHT22;3120;48.796;9.796;2024-03-08T14:53:52;17.30;57.70
6174;DHT22;3120;48.796;9.796;2024-03-08T14:56:18;17.00;58.10
6174;DHT22;3120;48.796;9.796;2024-03-08T14:58:44;17.20;57.60
6174;DHT22;3120;48.796;9.796;2024-03-08T15:01:12;17.10;57.40
6174;DHT22;3120;48.796;9.796;2024-03-08T15:03:39;17.00;57.10
6174;DHT22;3120;48.796;9.796;2024-03-08T15:06:05;16.90;57.50
6174;DHT22;3120;48.796;9.796;2024-03-08T15:08:39;16.60;58.00
6174;DHT22;3120;48.796;9.796;2024-03-08T15:11:08;17.20;57.30
6174;DHT22;3120;48.796;9.796;2024-03-08T15:13:34;17.10;57.10
6174;DHT22;3120;48.796;9.796;2024-03-08T15:16:13;16.70;58.00
6174;DHT22;3120;48.796;9.796;2024-03-08T15:18:42;16.50;57.70
6174;DHT22;3120;48.796;9.796;2024-03-08T15:21:12;16.90;57.70
6174;DHT22;3120;48.796;9.796;2024-03-08T15:23:38;16.90;57.70
6174;DHT22;3120;48.796;9.796;2024-03-08T15:26:09;16.80;59.10
6174;DHT22;3120;48.796;9.796;2024-03-08T15:28:34;17.30;57.50
6174;DHT22;3120;48.796;9.796;2024-03-08T15:31:04;16.90;58.10
6174;DHT22;3120;48.796;9.796;2024-03-08T15:33:33;16.60;58.80
6174;DHT22;3120;48.796;9.796;2024-03-08T15:35:59;16.60;59.50
6174;DHT22;3120;48.796;9.796;2024-03-08T15:38:29;16.60;60.10
6174;DHT22;3120;48.796;9.796;2024-03-08T15:40:55;17.00;59.20
6174;DHT22;3120;48.796;9.796;2024-03-08T15:43:21;16.60;58.20
6174;DHT22;3120;48.796;9.796;2024-03-08T15:45:48;15.60;59.90
6174;DHT22;3120;48.796;9.796;2024-03-08T15:48:13;14.80;62.20
6174;DHT22;3120;48.796;9.796;2024-03-08T15:50:39;13.80;64.30
6174;DHT22;3120;48.796;9.796;2024-03-08T15:53:05;13.10;67.10
6174;DHT22;3120;48.796;9.796;2024-03-08T15:55:31;12.70;69.20
6174;DHT22;3120;48.796;9.796;2024-03-08T15:57:57;12.30;70.70
6174;DHT22;3120;48.796;9.796;2024-03-08T16:00:25;12.20;70.90
6174;DHT22;3120;48.796;9.796;2024-03-08T16:03:01;12.00;71.70
6174;DHT22;3120;48.796;9.796;2024-03-08T16:05:36;11.80;73.00
6174;DHT22;3120;48.796;9.796;2024-03-08T16:08:02;11.80;73.60
6174;DHT22;3120;48.796;9.796;2024-03-08T16:10:29;11.80;73.60
6174;DHT22;3120;48.796;9.796;2024-03-08T16:12:57;11.80;73.40
6174;DHT22;3120;48.796;9.796;2024-03-08T16:15:23;11.80;74.10